Time;durP1;ratioP1;P1;durP2;ratioP2;P2;SDS_P1;SDS_P2;PMS_P1;PMS_P2;Temp;Humidity;BMP_temperature;BMP_pressure;BME280_temperature;BME280_humidity;BME280_pressure;Samples;Min_cycle;Max_cycle;Signal;HPM_P1;HPM_P2
2023/07/14 00:01:58;;;;;;;0.00;0.00;;;;;;;13.58;100.00;96832.56;4948392;28;20111;-78
2023/07/14 00:04:44;;;;;;;0.08;0.08;;;;;;;13.63;100.00;96830.72;4947383;28;20047;-77
2023/07/14 00:07:30;;;;;;;0.08;0.08;;;;;;;13.76;100.00;96821.38;4945756;28;20098;-79
2023/07/14 00:10:22;;;;;;;0.10;0.10;;;;;;;13.58;100.00;96822.63;4949297;28;20060;-78
2023/07/14 00:13:08;;;;;;;0.10;0.10;;;;;;;13.63;100.00;96817.28;4947319;28;20586;-77
2023/07/14 00:15:54;;;;;;;0.10;0.10;;;;;;;13.46;100.00;96819.28;4949779;28;20763;-78
2023/07/14 00:18:40;;;;;;;0.10;0.10;;;;;;;13.52;100.00;96823.66;4946976;28;20039;-79
2023/07/14 00:21:26;;;;;;;0.10;0.10;;;;;;;13.28;100.00;96809.75;4946879;28;20060;-79
2023/07/14 00:24:14;;;;;;;0.00;0.00;;;;;;;13.44;100.00;96807.19;4946715;28;20050;-79
2023/07/14 00:27:00;;;;;;;0.10;0.10;;;;;;;13.55;100.00;96809.72;4945442;28;20242;-78
2023/07/14 00:29:47;;;;;;;0.10;0.10;;;;;;;13.62;100.00;96815.66;4946831;28;20046;-78
2023/07/14 00:32:33;;;;;;;0.00;0.00;;;;;;;13.45;100.00;96809.63;4957497;28;20401;-78
2023/07/14 00:35:23;;;;;;;0.10;0.10;;;;;;;13.41;100.00;96821.16;4933366;28;20460;-78
2023/07/14 00:38:11;;;;;;;0.10;0.10;;;;;;;13.21;100.00;96821.78;4949075;28;20561;-79
2023/07/14 00:40:57;;;;;;;0.10;0.10;;;;;;;12.92;100.00;96808.63;4935467;28;20039;-78
2023/07/14 00:43:45;;;;;;;0.08;0.08;;;;;;;12.90;100.00;96809.94;4966576;28;20573;-79
2023/07/14 00:46:33;;;;;;;0.10;0.10;;;;;;;12.87;100.00;96816.63;4968528;28;20102;-80
2023/07/14 00:49:26;;;;;;;0.10;0.10;;;;;;;12.69;100.00;96819.69;4966734;28;20500;-79
2023/07/14 00:52:37;;;;;;;0.10;0.10;;;;;;;12.82;100.00;96816.56;4950003;28;20046;-78
2023/07/14 00:55:24;;;;;;;0.10;0.10;;;;;;;12.75;100.00;96808.72;4969448;28;20186;-77
2023/07/14 00:58:13;;;;;;;0.10;0.10;;;;;;;12.80;100.00;96807.97;4954713;28;20046;-79
2023/07/14 01:01:10;;;;;;;0.10;0.10;;;;;;;12.77;100.00;96817.34;4951531;28;20050;-78
2023/07/14 01:03:59;;;;;;;0.00;0.00;;;;;;;12.81;100.00;96817.63;4964980;28;20081;-79
2023/07/14 01:06:47;;;;;;;0.10;0.10;;;;;;;12.79;100.00;96806.34;4968034;28;20121;-78
2023/07/14 01:09:34;;;;;;;0.10;0.10;;;;;;;12.80;100.00;96807.97;4967818;28;20042;-78
2023/07/14 01:12:23;;;;;;;0.10;0.10;;;;;;;12.83;100.00;96804.75;4968634;28;20034;-78
2023/07/14 01:15:10;;;;;;;0.00;0.00;;;;;;;12.92;100.00;96800.56;4964074;28;20043;-78
2023/07/14 01:17:56;;;;;;;0.00;0.00;;;;;;;12.77;100.00;96795.88;4953399;28;20081;-79
2023/07/14 01:20:42;;;;;;;0.10;0.10;;;;;;;12.51;100.00;96802.84;4966884;28;20433;-77
2023/07/14 01:23:33;;;;;;;0.10;0.10;;;;;;;12.57;100.00;96802.91;4953801;28;20138;-79
2023/07/14 01:26:37;;;;;;;;;;;;;;;12.62;100.00;96797.59;4967616;28;20077;-78
2023/07/14 01:29:24;;;;;;;0.10;0.10;;;;;;;12.61;100.00;96801.34;4969098;28;19932;-80
2023/07/14 01:32:17;;;;;;;0.10;0.10;;;;;;;12.60;100.00;96805.06;4958177;28;20057;-79
2023/07/14 01:35:05;;;;;;;0.03;0.03;;;;;;;12.63;100.00;96812.63;4971439;28;20050;-78
2023/07/14 01:37:51;;;;;;;0.10;0.10;;;;;;;12.75;100.00;96808.72;4971078;28;20121;-77
2023/07/14 01:40:40;;;;;;;0.10;0.10;;;;;;;12.66;100.00;96806.75;4958760;28;20105;-78
2023/07/14 01:43:26;;;;;;;0.00;0.00;;;;;;;12.70;100.00;96811.38;4971596;28;20050;-79
2023/07/14 01:46:19;;;;;;;0.03;0.03;;;;;;;12.65;100.00;96797.06;4969306;28;20054;-79
2023/07/14 01:49:27;;;;;;;0.10;0.10;;;;;;;12.70;100.00;96803.31;4968750;28;20038;-79
2023/07/14 01:52:18;;;;;;;0.10;0.10;;;;;;;12.61;100.00;96809.41;4970067;28;20043;-80
2023/07/14 01:55:10;;;;;;;0.10;0.10;;;;;;;12.61;100.00;96804.03;4955885;28;20077;-78
2023/07/14 01:57:59;;;;;;;;;;;;;;;12.55;100.00;96797.78;4970020;28;20536;-78
2023/07/14 02:00:49;;;;;;;0.10;0.10;;;;;;;12.54;100.00;96801.53;4967737;28;20387;-78
2023/07/14 02:03:39;;;;;;;0.10;0.10;;;;;;;12.50;100.00;96801.22;4953423;28;20116;-78
2023/07/14 02:06:25;;;;;;;0.08;0.08;;;;;;;12.53;100.00;96807.97;4969461;28;20066;-78
2023/07/14 02:09:23;;;;;;;0.10;0.10;;;;;;;12.58;100.00;96796.47;4971367;28;21062;-78
2023/07/14 02:12:14;;;;;;;0.10;0.10;;;;;;;12.58;100.00;96799.16;4940468;28;20444;-78
2023/07/14 02:15:07;;;;;;;0.10;0.10;;;;;;;12.50;100.00;96801.22;4968038;28;20040;-79
2023/07/14 02:17:54;;;;;;;0.10;0.10;;;;;;;12.44;100.00;96796.03;4955081;28;20137;-77
2023/07/14 02:20:42;;;;;;;0.10;0.10;;;;;;;12.42;100.00;96800.84;4967290;28;20047;-78
2023/07/14 02:23:28;;;;;;;0.10;0.10;;;;;;;12.40;100.00;96801.09;4967837;28;20157;-79
2023/07/14 02:26:27;;;;;;;0.10;0.10;;;;;;;12.43;100.00;96794.41;4968730;28;20046;-79
2023/07/14 02:29:13;;;;;;;0.10;0.10;;;;;;;12.43;100.00;96786.38;4955700;28;20489;-78
2023/07/14 02:32:24;;;;;;;0.10;0.10;;;;;;;12.39;100.00;96788.75;4969571;28;20047;-78
2023/07/14 02:35:33;;;;;;;0.10;0.10;;;;;;;12.28;100.00;96805.78;4956057;28;20513;-79
2023/07/14 02:38:20;;;;;;;0.10;0.10;;;;;;;12.29;100.00;96794.00;4957570;28;20046;-79
2023/07/14 02:41:20;;;;;;;0.00;0.00;;;;;;;12.31;100.00;96808.00;4943500;28;20493;-78
2023/07/14 02:44:12;;;;;;;0.13;0.13;;;;;;;12.24;100.00;96783.22;4940597;28;20046;-79
2023/07/14 02:47:05;;;;;;;0.10;0.10;;;;;;;12.23;100.00;96789.66;4953887;28;20038;-79
2023/07/14 02:49:51;;;;;;;0.00;0.00;;;;;;;12.28;100.00;96787.81;4967497;28;20049;-79
2023/07/14 02:52:37;;;;;;;0.10;0.10;;;;;;;12.22;100.00;96783.47;4957510;28;20035;-78
2023/07/14 02:55:22;;;;;;;0.10;0.10;;;;;;;12.23;100.00;96787.78;4968170;28;20413;-79
2023/07/14 02:58:08;;;;;;;0.10;0.10;;;;;;;12.11;100.00;96792.44;4968126;28;20429;-79
2023/07/14 03:00:54;;;;;;;0.10;0.10;;;;;;;12.14;100.00;96786.59;4967066;28;20479;-78
2023/07/14 03:03:41;;;;;;;0.00;0.00;;;;;;;12.14;100.00;96791.13;4970051;28;20042;-79
2023/07/14 03:06:28;;;;;;;0.10;0.10;;;;;;;12.12;100.00;96786.00;4966753;28;20043;-80
2023/07/14 03:09:14;;;;;;;0.10;0.10;;;;;;;12.14;100.00;96786.59;4955985;28;20046;-80
2023/07/14 03:11:59;;;;;;;0.00;0.00;;;;;;;12.21;100.00;96781.03;4954339;28;20038;-79
2023/07/14 03:14:45;;;;;;;0.10;0.10;;;;;;;12.19;100.00;96777.78;4956046;28;20046;-79
2023/07/14 03:17:31;;;;;;;0.10;0.10;;;;;;;12.14;100.00;96775.88;4953103;28;20393;-79
2023/07/14 03:20:17;;;;;;;0.10;0.10;;;;;;;12.14;100.00;96780.41;4969385;28;20097;-79
2023/07/14 03:23:04;;;;;;;0.00;0.00;;;;;;;12.11;100.00;96764.81;4967229;28;20331;-79
2023/07/14 03:25:54;;;;;;;0.10;0.10;;;;;;;12.17;100.00;96777.22;4970783;28;20169;-79
2023/07/14 03:28:40;;;;;;;0.10;0.10;;;;;;;12.10;100.00;96768.56;4968111;28;20046;-79
2023/07/14 03:31:26;;;;;;;0.10;0.10;;;;;;;12.11;100.00;96775.53;4967328;28;20795;-80
2023/07/14 03:34:12;;;;;;;0.05;0.05;;;;;;;12.11;100.00;96779.03;4968566;28;20122;-79
2023/07/14 03:36:58;;;;;;;0.10;0.10;;;;;;;12.16;100.00;96778.28;4969453;28;20380;-79
2023/07/14 03:39:44;;;;;;;0.15;0.15;;;;;;;12.24;100.00;96777.84;4970457;28;20046;-79
2023/07/14 03:42:30;;;;;;;0.10;0.10;;;;;;;12.22;100.00;96777.31;4965836;28;20042;-80
2023/07/14 03:45:15;;;;;;;0.10;0.10;;;;;;;12.28;100.00;96770.91;4958920;28;20126;-80
2023/07/14 03:48:03;;;;;;;0.10;0.10;;;;;;;12.28;100.00;96770.91;4953900;28;20038;-80
2023/07/14 03:50:49;;;;;;;0.10;0.10;;;;;;;12.39;100.00;96766.47;4957771;28;20635;-78
2023/07/14 03:54:25;;;;;;;0.10;0.10;;;;;;;12.42;100.00;96774.81;4957687;28;20500;-78
2023/07/14 03:57:10;;;;;;;0.10;0.10;;;;;;;12.45;100.00;96774.34;4961317;28;20048;-77
2023/07/14 03:59:56;;;;;;;0.10;0.10;;;;;;;12.49;100.00;96767.38;4964329;28;20038;-77
2023/07/14 04:02:43;;;;;;;0.10;0.10;;;;;;;12.52;100.00;96768.75;4945807;28;20441;-78
2023/07/14 04:05:29;;;;;;;0.10;0.10;;;;;;;12.55;100.00;96761.00;4944971;28;20043;-78
2023/07/14 04:08:17;;;;;;;0.10;0.10;;;;;;;12.56;100.00;96761.81;4954698;28;20034;-76
2023/07/14 04:11:04;;;;;;;0.10;0.10;;;;;;;12.58;100.00;96761.56;4970515;28;20248;-77
2023/07/14 04:13:49;;;;;;;0.10;0.10;;;;;;;12.51;100.00;96762.56;4956309;28;20042;-79
2023/07/14 04:16:35;;;;;;;0.10;0.10;;;;;;;12.59;100.00;96764.00;4968942;28;20043;-77
2023/07/14 04:19:21;;;;;;;0.10;0.10;;;;;;;12.57;100.00;96754.56;4966769;28;20046;-79
2023/07/14 04:22:07;;;;;;;0.10;0.10;;;;;;;12.66;100.00;96766.47;4965426;28;20349;-77
2023/07/14 04:24:53;;;;;;;0.10;0.10;;;;;;;12.72;100.00;96757.41;4967317;28;20046;-78
2023/07/14 04:27:39;;;;;;;0.00;0.00;;;;;;;12.77;100.00;96757.47;4965090;28;20035;-78
2023/07/14 04:30:25;;;;;;;0.10;0.10;;;;;;;12.75;100.00;96740.78;4969696;28;20030;-78
2023/07/14 04:33:11;;;;;;;0.10;0.10;;;;;;;12.80;100.00;96744.31;4968576;28;20034;-77
2023/07/14 04:35:58;;;;;;;0.10;0.10;;;;;;;12.76;100.00;96740.53;4969487;28;20081;-78
2023/07/14 04:39:03;;;;;;;0.10;0.10;;;;;;;12.75;100.00;96746.16;4969687;28;20122;-78
2023/07/14 04:41:54;;;;;;;0.17;0.17;;;;;;;12.76;100.00;96745.06;4966569;28;20058;-78
2023/07/14 04:44:40;;;;;;;0.10;0.10;;;;;;;12.86;100.00;96742.50;4968255;28;20043;-78
2023/07/14 04:47:26;;;;;;;0.08;0.08;;;;;;;12.97;100.00;96746.06;4969554;28;20527;-79
2023/07/14 04:50:12;;;;;;;0.00;0.00;;;;;;;13.04;100.00;96733.25;4969132;28;20043;-78
2023/07/14 04:52:57;;;;;;;0.10;0.10;;;;;;;13.13;100.00;96731.69;4967087;28;20045;-78
2023/07/14 04:55:45;;;;;;;0.10;0.10;;;;;;;13.20;100.00;96737.69;4967573;28;20084;-78
2023/07/14 04:58:31;;;;;;;0.10;0.10;;;;;;;13.29;100.00;96738.00;4967086;28;20054;-77
2023/07/14 05:01:17;;;;;;;0.10;0.10;;;;;;;13.38;100.00;96737.28;4970357;28;20055;-78
2023/07/14 05:04:03;;;;;;;0.10;0.10;;;;;;;13.40;100.00;96728.97;4955516;28;20054;-79
2023/07/14 05:06:49;;;;;;;0.10;0.10;;;;;;;13.50;100.00;96734.38;4972856;28;20047;-78
2023/07/14 05:09:35;;;;;;;0.10;0.10;;;;;;;13.57;100.00;96726.91;4958606;28;20046;-78
2023/07/14 05:12:21;;;;;;;0.10;0.10;;;;;;;13.66;100.00;96730.72;4970814;28;20520;-79
2023/07/14 05:15:10;;;;;;;0.10;0.10;;;;;;;13.77;100.00;96723.50;4973275;28;20051;-77
2023/07/14 05:17:56;;;;;;;0.10;0.10;;;;;;;13.89;100.00;96720.59;4972851;28;20073;-79
2023/07/14 05:20:43;;;;;;;0.10;0.10;;;;;;;14.07;100.00;96736.25;4973970;28;20045;-77
2023/07/14 05:23:29;;;;;;;0.10;0.10;;;;;;;14.19;100.00;96726.09;4969975;28;20049;-79
2023/07/14 05:26:15;;;;;;;0.10;0.10;;;;;;;14.40;100.00;96726.97;4973482;28;20046;-79
2023/07/14 05:29:02;;;;;;;0.10;0.10;;;;;;;14.53;100.00;96736.41;4971718;28;20046;-79
2023/07/14 05:31:48;;;;;;;0.10;0.10;;;;;;;14.65;100.00;96739.69;4944399;28;20388;-79
2023/07/14 05:34:34;;;;;;;0.10;0.10;;;;;;;14.80;100.00;96730.81;4971829;28;20043;-80
2023/07/14 05:37:20;;;;;;;0.08;0.08;;;;;;;14.84;100.00;96734.56;4958115;28;20488;-79
2023/07/14 05:40:08;;;;;;;0.10;0.10;;;;;;;14.79;100.00;96729.19;4971746;28;20109;-78
2023/07/14 05:42:54;;;;;;;0.10;0.10;;;;;;;14.78;100.00;96727.56;4970655;28;20058;-79
2023/07/14 05:45:40;;;;;;;0.10;0.10;;;;;;;14.68;100.00;96722.97;4955221;28;20067;-80
2023/07/14 05:48:26;;;;;;;0.10;0.10;;;;;;;14.68;100.00;96725.66;4973546;28;20110;-80
2023/07/14 05:51:13;;;;;;;0.13;0.13;;;;;;;14.72;100.00;96726.75;4973303;28;20108;-80
2023/07/14 05:53:58;;;;;;;0.08;0.08;;;;;;;14.87;100.00;96727.84;4961800;28;20345;-81
2023/07/14 05:56:44;;;;;;;0.00;0.00;;;;;;;15.12;100.00;96733.25;4973120;28;20294;-80
2023/07/14 05:59:30;;;;;;;0.05;0.05;;;;;;;15.30;100.00;96721.88;4971040;28;20133;-79
2023/07/14 06:02:16;;;;;;;0.10;0.10;;;;;;;15.50;100.00;96729.16;4968593;28;20612;-80
2023/07/14 06:05:03;;;;;;;0.10;0.10;;;;;;;15.74;100.00;96734.78;4972009;28;20187;-79
2023/07/14 06:07:49;;;;;;;0.10;0.10;;;;;;;15.94;100.00;96731.19;4972061;28;20056;-79
2023/07/14 06:10:36;;;;;;;0.13;0.13;;;;;;;16.17;100.00;96721.66;4970770;28;20042;-80
2023/07/14 06:13:22;;;;;;;0.10;0.10;;;;;;;16.08;100.00;96723.31;4971126;28;20576;-79
2023/07/14 06:16:08;;;;;;;0.10;0.10;;;;;;;16.17;100.00;96730.53;4968951;28;20054;-79
2023/07/14 06:18:54;;;;;;;0.10;0.10;;;;;;;16.36;100.00;96728.03;4972199;28;20053;-80
2023/07/14 06:21:40;;;;;;;0.10;0.10;;;;;;;16.27;100.00;96718.91;4950385;28;20054;-80
2023/07/14 06:24:26;;;;;;;0.10;0.10;;;;;;;16.30;100.00;96717.53;4970786;28;20047;-79
2023/07/14 06:27:11;;;;;;;0.10;0.10;;;;;;;16.39;100.00;96713.97;4973557;28;20066;-81
2023/07/14 06:29:57;;;;;;;0.10;0.10;;;;;;;16.45;100.00;96706.66;4970552;28;20397;-80
2023/07/14 06:32:43;;;;;;;0.10;0.10;;;;;;;16.41;100.00;96697.47;4970312;28;20081;-81
2023/07/14 06:35:29;;;;;;;0.10;0.10;;;;;;;16.47;100.00;96699.06;4970431;28;20104;-77
2023/07/14 06:38:15;;;;;;;0.10;0.10;;;;;;;16.51;100.00;96702.84;4972678;28;20065;-79
2023/07/14 06:41:04;;;;;;;0.13;0.13;;;;;;;16.54;100.00;96693.34;4970245;28;20340;-79
2023/07/14 06:43:49;;;;;;;0.20;0.20;;;;;;;16.81;100.00;96699.16;4971257;28;20038;-79
2023/07/14 06:46:35;;;;;;;0.20;0.20;;;;;;;16.89;100.00;96685.03;4968649;28;20038;-79
2023/07/14 06:49:21;;;;;;;0.10;0.10;;;;;;;17.01;100.00;96694.66;4969391;28;20398;-80
2023/07/14 06:52:07;;;;;;;0.10;0.10;;;;;;;17.01;100.00;96702.75;4958141;28;20058;-79
2023/07/14 06:54:57;;;;;;;0.10;0.10;;;;;;;16.99;100.00;96693.03;4970079;28;20161;-79
2023/07/14 06:57:43;;;;;;;0.10;0.10;;;;;;;17.16;100.00;96691.81;4965608;28;20042;-79
2023/07/14 07:00:31;;;;;;;0.10;0.10;;;;;;;17.15;100.00;96698.31;4947230;28;20176;-80
2023/07/14 07:03:17;;;;;;;0.15;0.15;;;;;;;17.21;100.00;96687.16;4969229;28;20034;-79
2023/07/14 07:06:03;;;;;;;0.15;0.15;;;;;;;17.29;100.00;96682.25;4973929;28;20587;-80
2023/07/14 07:08:49;;;;;;;0.10;0.10;;;;;;;17.54;100.00;96684.66;4969836;28;20042;-81
2023/07/14 07:11:35;;;;;;;0.10;0.10;;;;;;;17.67;100.00;96684.00;4956452;28;20572;-78
2023/07/14 07:14:21;;;;;;;0.13;0.13;;;;;;;17.88;100.00;96664.81;4942138;28;20137;-77
2023/07/14 07:17:07;;;;;;;0.10;0.10;;;;;;;17.94;100.00;96669.88;4916617;28;20077;-78
2023/07/14 07:19:52;;;;;;;0.10;0.10;;;;;;;18.08;100.00;96673.50;4966820;28;20110;-79
2023/07/14 07:22:40;;;;;;;0.10;0.10;;;;;;;17.93;100.00;96675.59;4968512;28;20133;-79
2023/07/14 07:25:26;;;;;;;0.10;0.10;;;;;;;18.00;100.00;96674.13;4953164;28;20053;-79
2023/07/14 07:28:12;;;;;;;0.10;0.10;;;;;;;17.98;100.00;96675.53;4968733;28;20516;-79
2023/07/14 07:30:58;;;;;;;0.10;0.10;;;;;;;18.01;100.00;96672.22;4968627;28;20109;-79
2023/07/14 07:33:44;;;;;;;0.10;0.10;;;;;;;18.16;100.00;96668.53;4970454;28;20051;-79
2023/07/14 07:36:30;;;;;;;0.10;0.10;;;;;;;18.36;100.00;96673.63;4966657;28;20125;-79
2023/07/14 07:39:16;;;;;;;0.10;0.10;;;;;;;18.55;100.00;96654.69;4959823;28;20061;-78
2023/07/14 07:42:03;;;;;;;0.13;0.13;;;;;;;18.56;100.00;96662.50;4968199;28;20069;-78
2023/07/14 07:44:49;;;;;;;0.10;0.10;;;;;;;18.67;100.00;96659.66;4959836;28;20718;-79
2023/07/14 07:47:35;;;;;;;0.10;0.10;;;;;;;18.61;100.00;96653.50;4967437;28;20050;-79
2023/07/14 07:50:21;;;;;;;0.10;0.10;;;;;;;18.54;100.00;96647.66;4968876;28;20276;-79
2023/07/14 07:53:07;;;;;;;0.00;0.00;;;;;;;18.77;100.00;96652.19;4966613;28;20042;-78
2023/07/14 07:55:57;;;;;;;0.10;0.10;;;;;;;19.03;100.00;96647.13;4966301;28;20294;-79
2023/07/14 07:58:43;;;;;;;0.10;0.10;;;;;;;19.24;100.00;96641.38;4970032;28;20052;-78
2023/07/14 08:01:29;;;;;;;0.10;0.10;;;;;;;19.56;100.00;96643.19;4968810;28;20038;-79
2023/07/14 08:04:16;;;;;;;0.10;0.10;;;;;;;19.48;100.00;96640.09;4970462;28;20137;-78
2023/07/14 08:07:07;;;;;;;0.10;0.10;;;;;;;19.43;100.00;96636.66;4966505;28;20050;-79
2023/07/14 08:09:53;;;;;;;;;;;;;;;19.41;100.00;96634.25;4966173;28;20267;-79
2023/07/14 08:12:39;;;;;;;0.10;0.10;;;;;;;19.23;100.00;96640.56;4967725;28;19999;-78
2023/07/14 08:15:25;;;;;;;0.00;0.00;;;;;;;19.25;100.00;96638.34;4923010;28;20050;-78
2023/07/14 08:18:11;;;;;;;0.10;0.10;;;;;;;19.52;100.00;96642.97;4951951;28;20126;-79
2023/07/14 08:20:58;;;;;;;0.10;0.10;;;;;;;19.57;100.00;96647.56;4967876;28;20034;-78
2023/07/14 08:23:44;;;;;;;0.10;0.10;;;;;;;19.53;100.00;96644.59;4964665;28;20499;-78
2023/07/14 08:26:36;;;;;;;0.10;0.10;;;;;;;19.74;100.00;96656.69;4953420;28;20057;-78
2023/07/14 08:29:24;;;;;;;0.20;0.20;;;;;;;20.22;100.00;96650.78;4970630;28;20093;-77
2023/07/14 08:32:09;;;;;;;0.10;0.10;;;;;;;20.85;100.00;96630.06;4968903;28;20485;-78
2023/07/14 08:34:56;;;;;;;0.10;0.10;;;;;;;21.14;95.81;96637.75;4958731;28;20210;-78
2023/07/14 08:37:41;;;;;;;0.10;0.10;;;;;;;20.86;97.54;96637.94;4962479;28;20066;-78
2023/07/14 08:40:33;;;;;;;0.10;0.10;;;;;;;21.14;93.83;96630.41;4961291;28;20056;-78
2023/07/14 08:43:28;;;;;;;0.10;0.10;;;;;;;21.06;90.87;96627.63;4964658;28;20050;-78
2023/07/14 08:46:26;;;;;;;0.10;0.10;;;;;;;20.91;90.92;96633.47;4966640;28;20069;-77
2023/07/14 08:49:38;;;;;;;0.05;0.05;;;;;;;20.90;89.68;96640.00;4954752;28;20105;-79
2023/07/14 08:52:35;;;;;;;0.15;0.15;;;;;;;20.84;88.07;96629.25;4967518;28;20428;-79
2023/07/14 08:55:26;;;;;;;0.08;0.08;;;;;;;21.17;87.78;96636.31;4954682;28;20584;-78
2023/07/14 08:58:14;;;;;;;;;;;;;;;21.97;85.71;96630.59;4955153;28;20043;-78
2023/07/14 09:01:25;;;;;;;0.10;0.10;;;;;;;22.53;85.41;96625.38;4950063;28;20017;-79
2023/07/14 09:04:18;;;;;;;0.10;0.10;;;;;;;22.04;84.45;96618.44;4967468;28;20548;-78
2023/07/14 09:07:09;;;;;;;0.10;0.10;;;;;;;21.84;85.49;96614.38;4958705;28;20046;-79
2023/07/14 09:09:56;;;;;;;0.10;0.10;;;;;;;21.64;85.24;96619.28;4954316;28;20408;-79
2023/07/14 09:12:53;;;;;;;0.03;0.03;;;;;;;22.25;84.40;96612.06;4964639;28;20125;-78
2023/07/14 09:15:41;;;;;;;0.10;0.10;;;;;;;22.49;81.71;96618.97;4964088;28;20859;-78
2023/07/14 09:18:33;;;;;;;0.05;0.05;;;;;;;22.43;82.23;96626.50;4964605;28;20042;-78
2023/07/14 09:21:25;;;;;;;0.10;0.10;;;;;;;22.57;81.86;96620.06;4965636;28;20279;-78
2023/07/14 09:24:36;;;;;;;0.10;0.10;;;;;;;21.80;86.10;96614.22;4969100;28;20057;-79
2023/07/14 09:27:28;;;;;;;0.05;0.05;;;;;;;21.60;87.18;96621.03;4967366;28;20045;-78
2023/07/14 09:30:18;;;;;;;0.00;0.00;;;;;;;22.12;87.02;96620.41;4965212;28;20053;-78
2023/07/14 09:33:09;;;;;;;0.10;0.10;;;;;;;22.01;85.76;96621.78;4965628;28;20433;-78
2023/07/14 09:35:55;;;;;;;0.10;0.10;;;;;;;22.09;84.69;96621.00;4958161;28;20038;-79
2023/07/14 09:39:13;;;;;;;0.10;0.10;;;;;;;22.69;86.15;96606.59;4964812;28;20081;-79
2023/07/14 09:42:03;;;;;;;0.00;0.00;;;;;;;22.71;82.84;96604.34;4967611;28;20047;-78
2023/07/14 09:44:49;;;;;;;0.10;0.10;;;;;;;22.68;83.57;96594.09;4967026;28;20034;-78
2023/07/14 09:47:35;;;;;;;0.10;0.10;;;;;;;22.48;81.76;96601.78;4964949;28;20319;-80
2023/07/14 09:50:23;;;;;;;0.10;0.10;;;;;;;22.78;82.26;96593.75;4968434;28;20516;-79
2023/07/14 09:53:09;;;;;;;0.10;0.10;;;;;;;22.85;82.60;96596.81;4967481;28;20224;-78
2023/07/14 09:56:07;;;;;;;0.10;0.10;;;;;;;23.25;79.45;96605.53;4971053;28;20042;-78
2023/07/14 09:58:58;;;;;;;0.13;0.13;;;;;;;23.41;80.50;96583.97;4967373;28;20401;-78
2023/07/14 10:01:57;;;;;;;0.10;0.10;;;;;;;24.72;72.55;96580.06;4965958;28;20293;-78
2023/07/14 10:04:48;;;;;;;0.10;0.10;;;;;;;25.28;66.10;96576.91;4956027;28;20908;-78
2023/07/14 10:07:40;;;;;;;0.10;0.10;;;;;;;24.57;73.21;96585.34;4946083;28;20202;-77
2023/07/14 10:10:26;;;;;;;0.10;0.10;;;;;;;24.23;73.51;96581.75;4949765;28;20051;-79
2023/07/14 10:13:19;;;;;;;0.10;0.10;;;;;;;24.13;72.20;96584.88;4951014;28;20042;-77
2023/07/14 10:16:16;;;;;;;0.10;0.10;;;;;;;24.88;69.81;96579.41;4969383;28;20285;-78
2023/07/14 10:19:14;;;;;;;0.10;0.10;;;;;;;24.58;71.03;96576.00;4967783;28;20074;-78
2023/07/14 10:22:17;;;;;;;0.10;0.10;;;;;;;23.37;75.30;96572.09;4967455;28;20036;-78
2023/07/14 10:25:04;;;;;;;0.10;0.10;;;;;;;23.21;77.04;96573.78;4967804;28;20050;-78
2023/07/14 10:28:05;;;;;;;0.10;0.10;;;;;;;23.63;76.59;96575.53;4968214;28;20030;-79
2023/07/14 10:30:54;;;;;;;0.10;0.10;;;;;;;23.92;74.41;96568.47;4954626;28;20053;-77
2023/07/14 10:34:17;;;;;;;0.10;0.10;;;;;;;23.46;78.35;96563.88;4965607;28;20445;-78
2023/07/14 10:37:16;;;;;;;0.10;0.10;;;;;;;23.79;77.17;96559.38;4969924;28;20081;-79
2023/07/14 10:40:11;;;;;;;0.10;0.10;;;;;;;23.83;73.35;96557.59;4955868;28;20524;-78
2023/07/14 10:43:02;;;;;;;0.10;0.10;;;;;;;25.04;69.50;96550.28;4967091;28;20409;-78
2023/07/14 10:45:55;;;;;;;0.05;0.05;;;;;;;24.98;68.67;96549.72;4968721;28;20054;-78
2023/07/14 10:48:50;;;;;;;0.10;0.10;;;;;;;24.65;69.39;96546.97;4966243;28;20133;-79
2023/07/14 10:51:44;;;;;;;0.10;0.10;;;;;;;25.15;69.62;96539.72;4959285;28;20758;-78
2023/07/14 10:54:42;;;;;;;0.10;0.10;;;;;;;25.07;66.04;96537.88;4970079;28;20038;-79
2023/07/14 10:57:46;;;;;;;0.10;0.10;;;;;;;25.08;68.99;96532.06;4969975;28;20038;-79
2023/07/14 11:00:41;;;;;;;0.10;0.10;;;;;;;25.20;65.03;96529.31;4952414;28;20050;-78
2023/07/14 11:03:34;;;;;;;0.10;0.10;;;;;;;24.29;68.11;96520.28;4971235;28;20730;-78
2023/07/14 11:06:28;;;;;;;0.10;0.10;;;;;;;24.01;70.96;96525.47;4954877;28;20042;-78
2023/07/14 11:09:15;;;;;;;0.10;0.10;;;;;;;24.80;68.05;96525.59;4967848;28;20732;-78
2023/07/14 11:12:11;;;;;;;0.10;0.10;;;;;;;25.78;64.69;96513.59;4958947;28;20213;-78
2023/07/14 11:15:12;;;;;;;0.10;0.10;;;;;;;26.21;59.65;96509.38;4969551;28;20421;-78
2023/07/14 11:18:25;;;;;;;0.10;0.10;;;;;;;26.15;57.53;96505.31;4968531;28;20057;-78
2023/07/14 11:21:36;;;;;;;0.20;0.20;;;;;;;26.26;58.92;96498.16;4957412;28;20044;-78
2023/07/14 11:24:33;;;;;;;0.10;0.10;;;;;;;25.43;62.88;96509.72;4953280;28;20046;-78
2023/07/14 11:27:51;;;;;;;0.10;0.10;;;;;;;24.89;68.56;96498.91;4958073;28;20118;-78
2023/07/14 11:30:42;;;;;;;0.10;0.10;;;;;;;24.45;69.75;96495.88;4934337;28;20495;-77
2023/07/14 11:33:42;;;;;;;0.00;0.00;;;;;;;23.81;74.34;96505.22;4969673;28;20472;-78
2023/07/14 11:36:42;;;;;;;0.10;0.10;;;;;;;24.09;71.83;96493.75;4970790;28;20051;-78
2023/07/14 11:39:51;;;;;;;0.20;0.20;;;;;;;25.21;62.26;96497.28;4953556;28;20042;-77
2023/07/14 11:42:38;;;;;;;0.00;0.00;;;;;;;25.40;62.73;96474.81;4952050;28;20482;-78
2023/07/14 11:45:31;;;;;;;0.08;0.08;;;;;;;26.25;58.46;96468.34;4969850;28;20655;-78
2023/07/14 11:48:24;;;;;;;0.10;0.10;;;;;;;25.60;60.79;96460.16;4961489;28;20084;-78
2023/07/14 11:51:16;;;;;;;0.10;0.10;;;;;;;26.16;59.01;96456.75;4966621;28;20102;-79
2023/07/14 11:54:15;;;;;;;0.00;0.00;;;;;;;25.15;58.04;96455.66;4968088;28;20385;-79
2023/07/14 11:57:06;;;;;;;0.08;0.08;;;;;;;26.20;56.64;96439.22;4967121;28;20488;-79
2023/07/14 12:00:14;;;;;;;0.10;0.10;;;;;;;27.16;46.25;96432.75;4913951;28;20068;-80
2023/07/14 12:03:03;;;;;;;0.10;0.10;;;;;;;30.86;35.10;96434.63;4946544;28;20066;-79
2023/07/14 12:06:32;;;;;;;0.20;0.20;;;;;;;31.93;29.16;96411.31;4964647;28;20412;-79
2023/07/14 12:09:18;;;;;;;0.03;0.03;;;;;;;29.10;36.19;96412.28;4969069;28;20087;-79
2023/07/14 12:12:07;;;;;;;0.10;0.10;;;;;;;27.41;39.17;96409.38;4968535;28;20065;-78
2023/07/14 12:14:53;;;;;;;0.10;0.10;;;;;;;27.88;38.67;96405.69;4965734;28;20157;-79
2023/07/14 12:17:48;;;;;;;0.00;0.00;;;;;;;27.63;39.78;96401.63;4972498;28;20038;-78
2023/07/14 12:20:36;;;;;;;0.10;0.10;;;;;;;26.74;41.79;96408.53;4966687;28;20544;-78
2023/07/14 12:23:27;;;;;;;0.10;0.10;;;;;;;26.60;45.27;96405.44;4967791;28;20035;-79
2023/07/14 12:26:17;;;;;;;0.10;0.10;;;;;;;26.41;45.08;96386.94;4965255;28;20137;-79
2023/07/14 12:29:12;;;;;;;0.10;0.10;;;;;;;26.55;46.37;96387.31;4971291;28;20062;-78
2023/07/14 12:31:58;;;;;;;0.10;0.10;;;;;;;27.01;43.84;96386.84;4968787;28;20046;-78
2023/07/14 12:34:46;;;;;;;0.00;0.00;;;;;;;26.55;44.16;96383.75;4967752;28;20078;-78
2023/07/14 12:37:33;;;;;;;0.08;0.08;;;;;;;25.87;47.33;96386.59;4967428;28;20504;-79
2023/07/14 12:40:22;;;;;;;0.00;0.00;;;;;;;26.18;47.12;96385.88;4969493;28;20057;-78
2023/07/14 12:43:24;;;;;;;0.00;0.00;;;;;;;26.06;49.76;96386.72;4969948;28;20095;-79
2023/07/14 12:46:35;;;;;;;;;;;;;;;25.78;51.56;96382.06;4967501;28;20050;-79
2023/07/14 12:49:32;;;;;;;0.10;0.10;;;;;;;25.55;53.93;96381.78;4956187;28;19941;-79
2023/07/14 12:52:28;;;;;;;0.00;0.00;;;;;;;25.72;54.15;96388.94;4928092;28;20740;-79
2023/07/14 12:55:18;;;;;;;0.10;0.10;;;;;;;25.80;47.82;96384.44;4969054;28;20129;-79
2023/07/14 12:58:07;;;;;;;0.10;0.10;;;;;;;26.03;48.56;96377.28;4966969;28;20542;-79
2023/07/14 13:00:54;;;;;;;0.20;0.20;;;;;;;31.62;30.27;96362.94;4967056;28;20059;-79
2023/07/14 13:03:40;;;;;;;0.20;0.20;;;;;;;36.10;23.65;96342.25;4955952;28;21261;-79
2023/07/14 13:06:26;;;;;;;0.20;0.20;;;;;;;37.64;22.37;96333.78;4968448;28;20133;-78
2023/07/14 13:09:23;;;;;;;0.10;0.10;;;;;;;33.56;26.11;96339.88;4966503;28;20042;-79
2023/07/14 13:12:13;;;;;;;0.05;0.05;;;;;;;31.08;28.93;96355.50;4966050;28;20541;-79
2023/07/14 13:15:00;;;;;;;0.20;0.20;;;;;;;33.22;27.67;96340.31;4943383;28;20862;-79
2023/07/14 13:17:49;;;;;;;0.10;0.10;;;;;;;35.25;24.05;96335.66;4941676;28;20042;-79